Time;durP1;ratioP1;P1;durP2;ratioP2;P2;SDS_P1;SDS_P2;PMS_P1;PMS_P2;Temp;Humidity;BMP_temperature;BMP_pressure;BME280_temperature;BME280_humidity;BME280_pressure;Samples;Min_cycle;Max_cycle;Signal;HPM_P1;HPM_P2
2023/05/06 00:02:45;;;;;;;6.18;5.57;;;17.60;88.70;;;;;;5056760;28;20024;-67
2023/05/06 00:06:17;;;;;;;7.90;5.55;;;17.60;88.60;;;;;;5015769;28;20152;-67
2023/05/06 00:08:52;;;;;;;10.43;7.55;;;17.60;88.50;;;;;;4973125;28;20043;-68
2023/05/06 00:11:24;;;;;;;8.32;6.10;;;17.50;87.80;;;;;;4973084;28;20031;-68
2023/05/06 00:13:50;;;;;;;9.20;6.72;;;17.50;87.40;;;;;;4973392;28;20383;-66
2023/05/06 00:16:16;;;;;;;9.07;6.47;;;17.50;86.80;;;;;;4983672;28;20045;-68
2023/05/06 00:18:42;;;;;;;10.50;6.15;;;17.40;86.90;;;;;;5023349;28;20070;-68
2023/05/06 00:21:07;;;;;;;11.23;6.25;;;17.40;86.70;;;;;;5073877;28;20029;-68
2023/05/06 00:23:33;;;;;;;7.68;5.55;;;17.30;87.40;;;;;;5074270;28;20028;-68
2023/05/06 00:25:59;;;;;;;8.65;5.22;;;17.30;86.00;;;;;;5074067;28;20086;-68
2023/05/06 00:28:25;;;;;;;8.25;5.50;;;17.20;85.70;;;;;;5074035;28;20108;-68
2023/05/06 00:30:50;;;;;;;10.15;5.10;;;17.20;85.70;;;;;;5073784;28;20474;-68
2023/05/06 00:33:16;;;;;;;7.75;5.47;;;17.10;85.80;;;;;;5073460;28;20047;-68
2023/05/06 00:35:42;;;;;;;6.15;5.53;;;17.10;86.10;;;;;;5073858;28;20031;-68
2023/05/06 00:38:09;;;;;;;8.90;4.78;;;17.10;86.30;;;;;;5073914;28;20024;-68
2023/05/06 00:40:35;;;;;;;6.55;4.90;;;17.00;86.10;;;;;;5055740;28;20033;-68
2023/05/06 00:43:02;;;;;;;11.27;5.07;;;17.00;86.40;;;;;;5073786;28;20541;-67
2023/05/06 00:45:27;;;;;;;9.00;5.20;;;16.90;86.60;;;;;;5073667;28;20299;-67
2023/05/06 00:47:55;;;;;;;7.80;4.97;;;16.90;86.60;;;;;;5073856;28;20017;-68
2023/05/06 00:50:21;;;;;;;8.40;4.70;;;16.90;87.40;;;;;;5073682;28;20099;-67
2023/05/06 00:52:48;;;;;;;7.10;5.25;;;16.80;87.70;;;;;;5073325;28;20587;-69
2023/05/06 00:55:14;;;;;;;8.90;5.32;;;16.80;88.00;;;;;;5073414;28;20480;-67
2023/05/06 00:57:42;;;;;;;8.55;5.20;;;16.80;88.40;;;;;;5072834;28;20039;-85
2023/05/06 01:00:10;;;;;;;10.25;5.38;;;16.80;88.70;;;;;;5071868;28;20036;-83
2023/05/06 01:02:36;;;;;;;10.80;5.10;;;16.80;87.90;;;;;;5072080;28;20475;-85
2023/05/06 01:05:02;;;;;;;9.52;5.00;;;16.80;87.70;;;;;;5072543;28;20099;-85
2023/05/06 01:07:57;;;;;;;8.27;5.50;;;16.80;87.60;;;;;;5073574;28;20017;-86
2023/05/06 01:10:52;;;;;;;7.43;4.97;;;16.80;87.60;;;;;;5072018;28;20044;-86
2023/05/06 01:13:45;;;;;;;8.98;5.60;;;16.70;88.20;;;;;;5072976;28;20104;-84
2023/05/06 01:16:14;;;;;;;5.82;5.20;;;16.70;88.40;;;;;;5073135;28;20096;-79
2023/05/06 01:18:42;;;;;;;7.43;5.95;;;16.70;88.30;;;;;;5073876;28;20576;-68
2023/05/06 01:21:09;;;;;;;17.85;6.50;;;16.60;88.00;;;;;;5073576;28;20442;-68
2023/05/06 01:23:56;;;;;;;6.68;5.82;;;16.60;87.90;;;;;;5073412;28;20082;-67
2023/05/06 01:26:23;;;;;;;7.93;5.38;;;16.60;88.40;;;;;;5073257;28;20060;-67
2023/05/06 01:28:49;;;;;;;13.57;7.15;;;16.60;89.00;;;;;;5073485;28;20106;-67
2023/05/06 01:31:49;;;;;;;11.77;8.38;;;16.60;89.30;;;;;;5073635;28;20028;-67
2023/05/06 01:35:05;;;;;;;15.32;9.50;;;16.50;89.30;;;;;;5065131;28;20159;-68
2023/05/06 01:38:19;;;;;;;15.07;9.85;;;16.50;89.80;;;;;;5073556;28;20437;-67
2023/05/06 01:54:07;;;;;;;15.88;8.68;;;16.50;90.10;;;;;;5044954;28;20047;-68
2023/05/06 02:00:25;;;;;;;12.70;8.10;;;16.50;90.50;;;;;;4966762;28;20068;-67
2023/05/06 02:02:51;;;;;;;12.18;8.75;;;16.50;90.30;;;;;;5052489;28;20100;-68
2023/05/06 02:05:17;;;;;;;11.30;8.02;;;16.50;90.30;;;;;;5052674;28;20418;-67
2023/05/06 02:07:43;;;;;;;10.73;7.90;;;16.50;90.30;;;;;;5052654;28;20017;-67
2023/05/06 02:10:09;;;;;;;12.40;7.85;;;16.50;90.30;;;;;;5052456;28;20358;-67
2023/05/06 02:12:35;;;;;;;9.50;8.13;;;16.50;90.30;;;;;;5052465;28;20024;-67
2023/05/06 02:15:01;;;;;;;8.95;7.40;;;16.40;90.40;;;;;;5052568;28;20075;-67
2023/05/06 02:17:27;;;;;;;12.70;7.68;;;16.40;90.50;;;;;;5052500;28;20064;-67
2023/05/06 02:19:52;;;;;;;10.38;7.35;;;16.40;90.70;;;;;;5034311;28;20091;-67
2023/05/06 02:22:18;;;;;;;10.07;7.00;;;16.40;90.90;;;;;;5052434;28;20074;-67
2023/05/06 02:24:44;;;;;;;13.75;7.95;;;16.40;91.10;;;;;;5052492;28;20044;-68
2023/05/06 02:27:10;;;;;;;10.93;7.07;;;16.40;91.30;;;;;;5052589;28;20017;-67
2023/05/06 02:29:35;;;;;;;8.73;7.10;;;16.40;91.30;;;;;;5052506;28;20492;-68
2023/05/06 02:32:01;;;;;;;9.75;7.43;;;16.40;91.30;;;;;;5052283;28;20021;-68
2023/05/06 02:34:27;;;;;;;11.00;7.03;;;16.40;91.40;;;;;;5052321;28;20025;-67
2023/05/06 02:36:52;;;;;;;11.50;7.68;;;16.40;91.50;;;;;;5052192;28;20025;-69
2023/05/06 02:39:18;;;;;;;12.45;7.20;;;16.40;91.30;;;;;;5055659;28;20061;-67
2023/05/06 02:41:44;;;;;;;12.20;7.13;;;16.40;91.40;;;;;;5056186;28;20021;-71
2023/05/06 02:44:10;;;;;;;7.90;6.68;;;16.40;91.50;;;;;;5056043;28;20052;-71
2023/05/06 02:46:35;;;;;;;12.25;6.95;;;16.40;91.40;;;;;;5056091;28;20021;-75
2023/05/06 02:49:01;;;;;;;8.93;6.97;;;16.40;91.30;;;;;;5055732;28;20025;-76
2023/05/06 02:51:27;;;;;;;12.85;6.97;;;16.40;91.30;;;;;;5056548;28;20033;-73
2023/05/06 02:53:52;;;;;;;7.28;6.55;;;16.40;91.40;;;;;;5075902;28;20032;-82
2023/05/06 02:56:18;;;;;;;8.95;6.70;;;16.40;91.60;;;;;;5075710;28;20149;-68
2023/05/06 02:58:44;;;;;;;11.68;7.22;;;16.30;91.60;;;;;;5075572;28;20353;-72
2023/05/06 03:01:10;;;;;;;7.65;6.50;;;16.30;91.60;;;;;;5075583;28;20051;-76
2023/05/06 03:03:35;;;;;;;9.95;6.57;;;16.30;91.50;;;;;;5075647;28;20047;-73
2023/05/06 03:06:01;;;;;;;11.20;6.40;;;16.30;91.30;;;;;;5058362;28;20029;-67
2023/05/06 03:08:27;;;;;;;10.82;7.00;;;16.30;91.00;;;;;;5076172;28;20029;-67
2023/05/06 03:10:53;;;;;;;7.55;6.80;;;16.20;90.80;;;;;;5076100;28;20060;-67
2023/05/06 03:13:19;;;;;;;7.28;6.43;;;16.20;90.70;;;;;;5076137;28;20024;-67
2023/05/06 03:15:52;;;;;;;8.48;6.60;;;16.10;90.70;;;;;;5076002;28;20066;-67
2023/05/06 03:22:31;;;;;;;9.18;6.22;;;16.00;90.60;;;;;;5013491;28;20054;-67
2023/05/06 03:28:54;;;;;;;8.18;6.10;;;15.80;90.30;;;;;;5013363;28;20049;-68
2023/05/06 03:38:43;;;;;;;12.32;6.78;;;15.70;90.70;;;;;;4954868;28;20023;-67
2023/05/06 03:41:28;;;;;;;8.95;6.22;;;15.60;90.70;;;;;;4982322;28;20050;-67
2023/05/06 03:43:56;;;;;;;9.23;5.88;;;15.70;90.80;;;;;;4982575;28;20470;-67
2023/05/06 03:46:22;;;;;;;12.63;6.30;;;15.60;90.80;;;;;;4993722;28;20449;-69
2023/05/06 03:48:48;;;;;;;9.15;5.88;;;15.60;90.90;;;;;;5030790;28;20392;-76
2023/05/06 03:51:14;;;;;;;10.20;5.70;;;15.60;90.80;;;;;;5074983;28;20028;-76
2023/05/06 03:53:40;;;;;;;8.63;5.18;;;15.60;90.90;;;;;;5053257;28;20106;-78
2023/05/06 03:56:06;;;;;;;8.75;5.93;;;15.60;90.90;;;;;;5053490;28;20083;-75
2023/05/06 03:58:32;;;;;;;7.38;6.18;;;15.60;90.90;;;;;;5054783;28;20074;-71
2023/05/06 04:00:59;;;;;;;8.40;6.38;;;15.60;91.00;;;;;;5054472;28;20112;-70
2023/05/06 04:03:25;;;;;;;6.90;5.93;;;15.60;91.10;;;;;;5054848;28;20325;-71
2023/05/06 04:05:51;;;;;;;10.95;6.18;;;15.60;91.30;;;;;;5054711;28;20032;-73
2023/05/06 04:08:17;;;;;;;10.10;6.28;;;15.60;91.50;;;;;;5054382;28;20041;-72
2023/05/06 04:10:43;;;;;;;9.25;5.65;;;15.50;91.30;;;;;;5054368;28;20017;-76
2023/05/06 04:13:09;;;;;;;7.47;5.43;;;15.50;91.50;;;;;;5054261;28;20496;-76
2023/05/06 04:15:35;;;;;;;10.65;6.22;;;15.50;91.40;;;;;;5054223;28;20029;-75
2023/05/06 04:18:01;;;;;;;11.63;6.00;;;15.60;91.30;;;;;;5054332;28;20028;-74
2023/05/06 04:20:27;;;;;;;12.85;6.53;;;15.50;91.00;;;;;;5053988;28;20044;-76
2023/05/06 04:22:53;;;;;;;7.85;5.88;;;15.50;91.00;;;;;;5054068;28;20096;-69
2023/05/06 04:25:18;;;;;;;9.15;6.07;;;15.40;91.00;;;;;;5054203;28;20047;-68
2023/05/06 04:27:45;;;;;;;9.55;6.03;;;15.40;91.10;;;;;;5054521;28;20025;-79
2023/05/06 04:30:11;;;;;;;6.63;5.85;;;15.30;91.00;;;;;;5054113;28;20027;-78
2023/05/06 04:32:37;;;;;;;11.77;6.47;;;15.30;91.20;;;;;;5054173;28;20492;-72
2023/05/06 04:35:03;;;;;;;12.98;6.60;;;15.20;91.40;;;;;;5053960;28;20031;-76
2023/05/06 04:37:29;;;;;;;8.68;5.95;;;15.20;91.40;;;;;;5052462;28;20021;-82
2023/05/06 04:39:56;;;;;;;8.85;5.93;;;15.20;91.40;;;;;;5053240;28;20040;-84
2023/05/06 04:42:22;;;;;;;7.10;6.03;;;15.20;91.60;;;;;;5053764;28;20096;-82
2023/05/06 04:44:48;;;;;;;9.85;6.10;;;15.20;91.70;;;;;;5053816;28;20112;-82
2023/05/06 04:47:14;;;;;;;15.13;6.68;;;15.20;91.70;;;;;;5053845;28;20032;-79
2023/05/06 04:49:41;;;;;;;11.32;6.50;;;15.20;91.70;;;;;;5053235;28;20036;-67
2023/05/06 04:52:06;;;;;;;8.05;6.00;;;15.30;91.80;;;;;;5056308;28;20381;-67
2023/05/06 04:54:32;;;;;;;6.80;6.10;;;15.20;91.70;;;;;;5074323;28;20066;-68
2023/05/06 04:56:58;;;;;;;9.35;6.55;;;15.20;91.80;;;;;;5074093;28;20024;-67
2023/05/06 04:59:24;;;;;;;8.20;6.53;;;15.30;91.80;;;;;;5074021;28;20133;-67
2023/05/06 05:01:50;;;;;;;8.25;6.43;;;15.30;91.90;;;;;;5073082;28;20024;-67
2023/05/06 05:04:19;;;;;;;17.73;7.00;;;15.20;91.90;;;;;;5073843;28;20032;-67
2023/05/06 05:06:45;;;;;;;17.58;6.82;;;15.30;92.40;;;;;;5073320;28;20020;-67
2023/05/06 05:09:14;;;;;;;10.13;6.95;;;15.30;92.40;;;;;;5073117;28;20412;-67
2023/05/06 05:11:49;;;;;;;11.73;7.25;;;15.30;92.50;;;;;;5073407;28;20111;-67
2023/05/06 05:14:41;;;;;;;10.63;7.30;;;15.30;92.90;;;;;;5073238;28;20380;-67
2023/05/06 05:17:22;;;;;;;9.27;7.28;;;15.50;93.00;;;;;;5073274;28;20024;-67
2023/05/06 05:20:17;;;;;;;8.18;6.70;;;15.50;92.90;;;;;;5073003;28;20040;-67
2023/05/06 05:23:05;;;;;;;10.20;7.57;;;15.60;93.20;;;;;;5073218;28;20110;-67
2023/05/06 05:25:31;;;;;;;8.35;7.45;;;15.60;93.20;;;;;;5072853;28;20021;-67
2023/05/06 05:28:00;;;;;;;10.70;7.18;;;15.70;93.30;;;;;;5072952;28;20031;-68
2023/05/06 05:30:25;;;;;;;11.65;7.47;;;15.70;93.20;;;;;;5072919;28;20029;-67
2023/05/06 05:32:51;;;;;;;9.15;7.30;;;15.80;93.10;;;;;;5072943;28;20021;-69
2023/05/06 05:35:18;;;;;;;9.23;7.13;;;15.80;93.20;;;;;;5072873;28;20032;-67
2023/05/06 05:37:43;;;;;;;11.13;7.35;;;15.80;92.80;;;;;;5072986;28;20032;-67
2023/05/06 05:40:09;;;;;;;10.85;7.03;;;15.90;93.00;;;;;;5072788;28;20033;-68
2023/05/06 05:42:35;;;;;;;9.73;7.50;;;15.90;93.00;;;;;;5072907;28;20021;-67
2023/05/06 05:45:01;;;;;;;11.85;7.93;;;16.00;93.20;;;;;;5072755;28;20447;-69
2023/05/06 05:47:26;;;;;;;16.45;7.80;;;16.00;93.00;;;;;;5072950;28;20028;-68
2023/05/06 05:49:53;;;;;;;10.48;8.30;;;16.00;93.10;;;;;;5072786;28;20100;-67
2023/05/06 05:52:18;;;;;;;21.45;10.30;;;16.10;93.20;;;;;;5072321;28;20071;-68
2023/05/06 05:54:44;;;;;;;10.70;8.68;;;16.10;93.30;;;;;;5071802;28;20056;-70
2023/05/06 05:57:10;;;;;;;9.88;8.27;;;16.20;93.30;;;;;;5072257;28;20032;-76
2023/05/06 05:59:36;;;;;;;11.57;8.20;;;16.20;93.30;;;;;;5071307;28;20075;-68
2023/05/06 06:02:02;;;;;;;11.82;8.48;;;16.30;93.30;;;;;;5069641;28;20029;-68
2023/05/06 06:04:27;;;;;;;17.85;8.80;;;16.30;93.20;;;;;;5070628;28;20109;-67
2023/05/06 06:06:56;;;;;;;14.20;8.07;;;16.40;93.50;;;;;;5070368;28;20065;-69
2023/05/06 06:09:22;;;;;;;19.35;8.25;;;16.60;93.60;;;;;;5072188;28;20025;-68
2023/05/06 06:11:48;;;;;;;13.85;8.52;;;16.60;93.90;;;;;;5073254;28;20376;-69
2023/05/06 06:14:14;;;;;;;16.58;8.65;;;16.70;93.80;;;;;;5076572;28;20032;-68
2023/05/06 06:16:40;;;;;;;19.48;8.60;;;16.80;93.70;;;;;;5076248;28;20028;-68
2023/05/06 06:19:05;;;;;;;22.60;9.10;;;16.90;93.70;;;;;;5075748;28;20033;-67
2023/05/06 06:21:31;;;;;;;19.17;9.45;;;17.00;93.60;;;;;;5076115;28;20021;-67
2023/05/06 06:23:57;;;;;;;20.95;8.32;;;17.10;93.40;;;;;;5076221;28;20025;-67
2023/05/06 06:26:23;;;;;;;14.18;8.80;;;17.10;93.40;;;;;;5076488;28;20027;-67
2023/05/06 06:28:48;;;;;;;16.80;9.40;;;17.20;93.50;;;;;;5074432;28;20032;-69
2023/05/06 06:31:14;;;;;;;16.92;8.60;;;17.30;93.20;;;;;;5055905;28;20021;-68
2023/05/06 06:33:40;;;;;;;19.95;7.97;;;17.40;93.20;;;;;;5055846;28;20029;-68
2023/05/06 06:36:06;;;;;;;14.15;8.55;;;17.50;92.90;;;;;;5056037;28;20083;-68
2023/05/06 06:38:32;;;;;;;13.57;8.50;;;17.60;92.90;;;;;;5056390;28;20086;-68
2023/05/06 06:40:58;;;;;;;14.55;7.78;;;17.70;92.80;;;;;;5056543;28;20041;-69
2023/05/06 06:43:24;;;;;;;15.23;7.70;;;17.80;92.60;;;;;;5038826;28;20021;-68
2023/05/06 06:45:50;;;;;;;15.85;9.07;;;17.90;92.30;;;;;;5056435;28;20029;-69
2023/05/06 06:48:19;;;;;;;18.20;9.32;;;17.90;92.70;;;;;;5056261;28;20021;-69
2023/05/06 06:51:09;;;;;;;11.43;8.30;;;18.00;92.80;;;;;;5054839;28;20025;-69
2023/05/06 06:54:30;;;;;;;15.48;8.52;;;18.00;92.70;;;;;;5072672;28;20413;-69
2023/05/06 06:57:08;;;;;;;16.25;8.07;;;18.00;92.60;;;;;;5018896;28;20106;-69
2023/05/06 06:59:52;;;;;;;13.23;8.20;;;18.10;92.60;;;;;;5055099;28;20051;-69
2023/05/06 07:02:22;;;;;;;15.00;8.10;;;18.10;92.40;;;;;;5063312;28;20384;-69
2023/05/06 07:04:48;;;;;;;14.13;7.95;;;18.20;92.50;;;;;;5052886;28;20029;-71
2023/05/06 07:07:14;;;;;;;14.20;8.15;;;18.20;92.50;;;;;;5065008;28;20446;-69
2023/05/06 07:09:40;;;;;;;9.68;7.82;;;18.30;92.60;;;;;;5055341;28;20053;-69
2023/05/06 07:12:09;;;;;;;9.70;7.78;;;18.30;92.60;;;;;;5059848;28;20021;-69
2023/05/06 07:14:38;;;;;;;15.30;7.65;;;18.30;92.50;;;;;;5057955;28;20056;-69
2023/05/06 07:17:04;;;;;;;14.25;7.85;;;18.40;92.20;;;;;;5055377;28;20416;-69
2023/05/06 07:19:30;;;;;;;11.55;7.25;;;18.50;92.40;;;;;;5053713;28;20388;-69
2023/05/06 07:21:56;;;;;;;15.20;7.43;;;18.50;92.80;;;;;;5037512;28;20031;-70
2023/05/06 07:24:22;;;;;;;12.38;7.82;;;18.60;92.60;;;;;;5054520;28;20028;-69
2023/05/06 07:26:48;;;;;;;11.80;8.38;;;18.70;92.70;;;;;;5055141;28;20103;-69
2023/05/06 07:29:14;;;;;;;12.23;7.40;;;18.70;92.50;;;;;;5055071;28;20033;-69
2023/05/06 07:31:40;;;;;;;13.27;7.72;;;18.80;92.10;;;;;;5054251;28;20032;-69
2023/05/06 07:34:06;;;;;;;16.70;7.35;;;18.90;92.30;;;;;;5054925;28;20029;-76
2023/05/06 07:36:39;;;;;;;16.38;7.63;;;18.90;92.30;;;;;;5054508;28;20029;-69
2023/05/06 07:39:09;;;;;;;13.82;7.88;;;19.00;92.90;;;;;;5036941;28;20025;-69
2023/05/06 07:41:35;;;;;;;11.20;6.70;;;19.10;92.20;;;;;;5054737;28;20028;-69
2023/05/06 07:44:01;;;;;;;12.95;7.75;;;19.20;92.10;;;;;;5054249;28;20025;-69
2023/05/06 07:46:27;;;;;;;12.68;7.18;;;19.20;91.80;;;;;;5053700;28;20056;-69
2023/05/06 07:48:53;;;;;;;12.90;7.22;;;19.30;91.90;;;;;;5054110;28;20057;-69
2023/05/06 07:51:19;;;;;;;12.63;7.18;;;19.40;92.20;;;;;;5054747;28;20031;-69
2023/05/06 07:53:45;;;;;;;13.45;7.55;;;19.40;91.90;;;;;;5074264;28;20036;-70
2023/05/06 07:56:10;;;;;;;15.48;8.02;;;19.50;91.50;;;;;;5056452;28;20032;-69
2023/05/06 07:58:36;;;;;;;11.90;8.02;;;19.60;91.50;;;;;;5072676;28;20056;-78
2023/05/06 08:01:02;;;;;;;11.25;7.35;;;19.70;91.10;;;;;;5073454;28;20044;-78
2023/05/06 08:03:29;;;;;;;10.45;7.03;;;19.80;90.60;;;;;;5074259;28;20027;-77
2023/05/06 08:05:55;;;;;;;12.60;7.25;;;19.90;90.50;;;;;;5074391;28;20391;-76
2023/05/06 08:08:22;;;;;;;13.18;7.35;;;20.00;90.80;;;;;;5074443;28;20100;-71
2023/05/06 08:10:48;;;;;;;9.52;6.47;;;20.10;90.30;;;;;;5074395;28;20354;-80
2023/05/06 08:13:13;;;;;;;10.18;6.45;;;20.10;90.40;;;;;;5074179;28;20067;-82
2023/05/06 08:15:39;;;;;;;11.20;6.50;;;20.20;90.50;;;;;;5073840;28;20032;-83
2023/05/06 08:18:05;;;;;;;11.52;7.00;;;20.30;90.30;;;;;;5055939;28;20460;-79
2023/05/06 08:20:31;;;;;;;10.90;6.13;;;20.30;89.70;;;;;;5075047;28;20033;-69
2023/05/06 08:22:59;;;;;;;8.27;6.70;;;20.40;88.80;;;;;;5074780;28;20095;-69
2023/05/06 08:25:25;;;;;;;14.02;7.60;;;20.40;87.60;;;;;;5073717;28;20425;-69
2023/05/06 08:27:51;;;;;;;14.73;7.75;;;20.50;88.20;;;;;;5073591;28;20107;-69
2023/05/06 08:30:16;;;;;;;12.45;8.00;;;20.50;88.50;;;;;;5074061;28;20050;-69
2023/05/06 08:32:42;;;;;;;8.75;7.18;;;20.60;88.80;;;;;;5073906;28;20035;-69
2023/05/06 08:38:20;;;;;;;11.90;7.78;;;20.70;88.70;;;;;;5073196;28;20396;-69
2023/05/06 08:41:13;;;;;;;16.70;8.38;;;20.70;88.40;;;;;;5073413;28;20036;-69
2023/05/06 08:44:16;;;;;;;9.13;7.18;;;20.80;89.10;;;;;;5073667;28;20028;-69
2023/05/06 08:46:50;;;;;;;;;;;20.90;88.90;;;;;;5073401;28;20067;-69
2023/05/06 08:49:19;;;;;;;13.35;7.50;;;20.90;89.50;;;;;;5073519;28;19911;-68
2023/05/06 08:55:09;;;;;;;12.00;7.95;;;21.00;88.20;;;;;;5030980;28;20182;-70
2023/05/06 08:58:01;;;;;;;10.75;7.50;;;21.10;87.80;;;;;;5073297;28;20020;-69
2023/05/06 09:00:31;;;;;;;11.82;7.25;;;21.10;87.90;;;;;;5073489;28;20123;-70
2023/05/06 09:02:57;;;;;;;12.07;6.85;;;21.20;87.80;;;;;;5073524;28;20025;-69
2023/05/06 09:05:23;;;;;;;66.13;9.50;;;21.20;87.30;;;;;;5073262;28;20028;-76
2023/05/06 09:07:49;;;;;;;19.92;7.57;;;21.30;86.90;;;;;;5073022;28;20545;-77
2023/05/06 09:10:16;;;;;;;13.48;7.18;;;21.30;87.40;;;;;;5054967;28;20500;-69
2023/05/06 09:12:42;;;;;;;9.27;7.72;;;21.30;89.20;;;;;;5073045;28;20020;-66
2023/05/06 09:15:08;;;;;;;12.80;7.22;;;21.40;89.00;;;;;;5072269;28;20380;-68
2023/05/06 09:17:35;;;;;;;14.65;7.32;;;21.40;87.60;;;;;;5072592;28;20024;-67
2023/05/06 09:20:01;;;;;;;12.13;6.47;;;21.50;87.00;;;;;;5072328;28;20080;-68
2023/05/06 09:22:28;;;;;;;12.05;8.57;;;21.60;86.70;;;;;;5073050;28;20029;-68
2023/05/06 09:24:55;;;;;;;10.35;7.03;;;21.60;86.10;;;;;;5072879;28;20119;-68
2023/05/06 09:27:26;;;;;;;9.75;8.18;;;21.70;86.10;;;;;;5072587;28;20020;-68
2023/05/06 09:30:18;;;;;;;13.05;8.55;;;21.80;85.20;;;;;;5072517;28;20027;-67
2023/05/06 09:32:48;;;;;;;18.75;7.85;;;21.80;85.50;;;;;;5068383;28;20086;-66
2023/05/06 09:35:14;;;;;;;12.15;7.85;;;21.90;85.20;;;;;;5072838;28;20387;-70
2023/05/06 09:37:40;;;;;;;9.70;7.50;;;21.90;86.00;;;;;;5072710;28;20103;-70
2023/05/06 09:40:08;;;;;;;11.05;8.02;;;22.00;86.80;;;;;;5072382;28;20119;-70
2023/05/06 09:42:33;;;;;;;10.40;8.93;;;22.10;86.20;;;;;;5054594;28;20021;-70
2023/05/06 09:45:00;;;;;;;12.15;7.97;;;22.10;84.70;;;;;;5053364;28;20088;-70
2023/05/06 09:47:31;;;;;;;14.07;9.27;;;22.10;84.80;;;;;;5052987;28;20024;-69
2023/05/06 09:50:00;;;;;;;9.48;8.45;;;22.20;84.80;;;;;;5072274;28;20032;-69
2023/05/06 09:52:30;;;;;;;13.88;8.10;;;22.30;84.60;;;;;;5072365;28;20049;-70
2023/05/06 09:54:56;;;;;;;44.60;8.63;;;22.30;84.90;;;;;;5054045;28;20029;-73
2023/05/06 09:57:22;;;;;;;14.80;9.57;;;22.40;84.50;;;;;;5054293;28;20487;-69
2023/05/06 09:59:51;;;;;;;12.95;8.90;;;22.50;82.30;;;;;;5072187;28;20032;-70
2023/05/06 10:02:18;;;;;;;19.15;8.63;;;22.60;82.10;;;;;;5072658;28;20550;-69
2023/05/06 10:04:47;;;;;;;9.82;8.63;;;22.70;81.00;;;;;;5073141;28;20098;-69
2023/05/06 10:07:15;;;;;;;19.80;8.98;;;22.80;81.00;;;;;;5072974;28;20028;-69
2023/05/06 10:09:41;;;;;;;12.35;8.90;;;22.80;81.50;;;;;;5054682;28;20029;-69
2023/05/06 10:12:08;;;;;;;13.80;8.00;;;22.90;81.40;;;;;;5073064;28;20024;-69
2023/05/06 10:14:37;;;;;;;10.18;7.20;;;23.00;82.00;;;;;;5072806;28;20028;-69
2023/05/06 10:17:10;;;;;;;11.38;9.20;;;23.00;81.10;;;;;;5072588;28;20381;-69
2023/05/06 10:19:42;;;;;;;21.02;7.85;;;23.10;79.60;;;;;;5072495;28;20111;-69
2023/05/06 10:22:29;;;;;;;13.45;8.23;;;23.20;79.80;;;;;;5054726;28;20125;-69
2023/05/06 10:24:58;;;;;;;13.63;9.38;;;23.30;80.00;;;;;;5072437;28;20094;-68
2023/05/06 10:27:25;;;;;;;11.50;8.25;;;23.40;77.90;;;;;;5071895;28;20431;-69
2023/05/06 10:29:59;;;;;;;12.95;9.57;;;23.40;79.70;;;;;;5072354;28;20024;-70
2023/05/06 10:32:30;;;;;;;13.65;8.90;;;23.50;77.20;;;;;;5072607;28;20025;-69
2023/05/06 10:35:03;;;;;;;9.88;8.88;;;23.50;76.60;;;;;;5072481;28;20032;-70
2023/05/06 10:37:30;;;;;;;11.23;9.13;;;23.50;75.60;;;;;;5072226;28;20017;-69
2023/05/06 10:39:56;;;;;;;13.82;8.20;;;23.50;74.70;;;;;;5071736;28;20407;-70
2023/05/06 10:42:27;;;;;;;13.05;8.55;;;23.60;73.80;;;;;;5072048;28;20429;-70
2023/05/06 10:44:59;;;;;;;10.07;8.48;;;23.60;74.50;;;;;;5072239;28;20083;-70
2023/05/06 10:47:26;;;;;;;15.38;9.15;;;23.60;71.80;;;;;;5072261;28;20118;-70
2023/05/06 10:50:20;;;;;;;9.73;8.70;;;23.60;71.00;;;;;;5072281;28;20435;-71
2023/05/06 10:52:47;;;;;;;10.45;7.85;;;23.60;72.10;;;;;;5071898;28;20060;-70
2023/05/06 10:55:32;;;;;;;12.45;7.53;;;23.70;74.60;;;;;;5072117;28;20081;-71
2023/05/06 10:58:02;;;;;;;13.75;8.30;;;23.80;74.70;;;;;;5054074;28;20021;-70
2023/05/06 11:00:33;;;;;;;14.10;7.35;;;23.90;73.50;;;;;;5075604;28;20495;-70
2023/05/06 11:03:07;;;;;;;14.05;8.15;;;23.90;73.70;;;;;;5075428;28;20062;-71
2023/05/06 11:05:49;;;;;;;11.85;8.75;;;24.00;73.40;;;;;;5075510;28;20020;-71
2023/05/06 11:08:21;;;;;;;11.98;8.85;;;24.00;73.90;;;;;;5057612;28;20376;-71
2023/05/06 11:10:47;;;;;;;12.15;8.02;;;24.10;73.60;;;;;;5075619;28;20460;-71
2023/05/06 11:13:26;;;;;;;9.18;7.07;;;24.10;73.60;;;;;;5073522;28;20021;-71
2023/05/06 11:15:53;;;;;;;7.70;6.70;;;24.10;71.50;;;;;;5072746;28;20035;-71
2023/05/06 11:18:32;;;;;;;10.32;7.38;;;24.10;69.70;;;;;;5073943;28;20031;-72
2023/05/06 11:21:01;;;;;;;7.13;5.93;;;24.10;70.30;;;;;;5075330;28;20476;-71
2023/05/06 11:23:45;;;;;;;12.80;6.65;;;24.20;66.60;;;;;;5075371;28;20124;-71
2023/05/06 11:26:12;;;;;;;9.02;6.75;;;24.10;67.00;;;;;;5075156;28;20372;-71
2023/05/06 11:28:41;;;;;;;6.68;5.90;;;24.10;67.70;;;;;;5074320;28;20488;-71
2023/05/06 11:31:08;;;;;;;9.20;5.82;;;24.20;67.90;;;;;;5072443;28;20063;-71
2023/05/06 11:33:36;;;;;;;9.73;6.97;;;24.20;70.40;;;;;;5072217;28;20082;-72
2023/05/06 11:36:03;;;;;;;14.85;6.40;;;24.30;70.10;;;;;;5073564;28;20024;-71
2023/05/06 11:38:47;;;;;;;7.53;6.10;;;24.30;69.80;;;;;;5075535;28;20017;-71
2023/05/06 11:41:13;;;;;;;8.27;5.53;;;24.30;65.70;;;;;;5075563;28;20397;-71
2023/05/06 11:43:45;;;;;;;10.43;6.32;;;24.30;66.90;;;;;;5075359;28;20020;-71
2023/05/06 11:46:11;;;;;;;9.45;5.80;;;24.40;69.60;;;;;;5075630;28;20426;-70
2023/05/06 11:48:37;;;;;;;6.45;5.30;;;24.40;67.80;;;;;;5075252;28;20020;-71
2023/05/06 11:54:21;;;;;;;;;;;;;;;;;;;;;
2023/05/06 11:57:02;;;;;;;8.90;4.50;;;24.50;66.50;;;;;;5055135;28;20040;-71
2023/05/06 11:59:52;;;;;;;5.65;4.70;;;24.50;67.80;;;;;;5053797;28;20441;-71
2023/05/06 12:02:45;;;;;;;11.25;5.18;;;24.60;65.00;;;;;;5054287;28;20421;-71
2023/05/06 12:05:21;;;;;;;8.15;4.10;;;24.60;66.30;;;;;;5054064;28;20144;-70
2023/05/06 12:08:11;;;;;;;8.85;4.95;;;24.70;66.40;;;;;;5049553;28;20428;-71
2023/05/06 12:10:40;;;;;;;7.82;4.93;;;24.70;63.70;;;;;;5053769;28;20114;-71
2023/05/06 12:13:15;;;;;;;5.82;5.22;;;24.70;66.20;;;;;;5054337;28;20021;-71
2023/05/06 12:15:53;;;;;;;6.45;5.00;;;24.70;67.30;;;;;;5054296;28;20029;-70
2023/05/06 12:18:22;;;;;;;6.53;5.55;;;24.80;64.60;;;;;;5054462;28;20029;-71
2023/05/06 12:20:48;;;;;;;7.43;6.43;;;24.80;65.90;;;;;;5053855;28;20432;-71
2023/05/06 12:23:15;;;;;;;8.23;6.22;;;24.90;66.20;;;;;;5054140;28;20476;-71
2023/05/06 12:25:43;;;;;;;6.78;5.40;;;24.90;65.80;;;;;;5053747;28;20104;-71
2023/05/06 12:28:21;;;;;;;7.80;6.75;;;24.90;64.60;;;;;;5053772;28;20116;-70
2023/05/06 12:30:47;;;;;;;7.70;6.10;;;24.90;64.30;;;;;;5053671;28;20025;-70
2023/05/06 12:33:13;;;;;;;8.27;5.80;;;25.00;64.10;;;;;;5053638;28;20104;-71
2023/05/06 12:35:40;;;;;;;9.45;5.28;;;25.00;64.30;;;;;;5053710;28;20021;-70
2023/05/06 12:38:08;;;;;;;10.27;6.35;;;25.00;66.40;;;;;;5053644;28;20100;-71
2023/05/06 12:40:34;;;;;;;9.43;6.70;;;25.10;63.10;;;;;;5053225;28;20040;-71
2023/05/06 12:43:00;;;;;;;11.40;6.75;;;25.10;64.00;;;;;;5053517;28;20469;-72
2023/05/06 12:45:26;;;;;;;7.65;6.28;;;25.10;63.50;;;;;;5052994;28;20103;-72
2023/05/06 12:48:03;;;;;;;7.63;5.55;;;25.10;64.10;;;;;;5053259;28;20021;-72
2023/05/06 12:50:33;;;;;;;7.95;5.50;;;25.10;65.10;;;;;;5050985;28;20400;-72
2023/05/06 12:52:59;;;;;;;11.75;6.43;;;25.20;62.20;;;;;;5063690;28;20518;-73
2023/05/06 12:55:25;;;;;;;7.40;5.10;;;25.10;63.20;;;;;;5072224;28;20472;-72
2023/05/06 12:57:51;;;;;;;8.52;5.10;;;25.10;64.30;;;;;;5073447;28;20062;-72
2023/05/06 13:00:18;;;;;;;8.43;5.50;;;25.20;64.10;;;;;;5072731;28;20495;-72
2023/05/06 13:02:44;;;;;;;7.68;5.90;;;25.20;63.40;;;;;;5073135;28;20056;-72
2023/05/06 13:05:10;;;;;;;5.45;4.22;;;25.20;61.70;;;;;;5072985;28;20052;-72
2023/05/06 13:07:36;;;;;;;8.13;4.65;;;25.20;61.20;;;;;;5055105;28;20114;-72
2023/05/06 13:10:02;;;;;;;11.57;4.80;;;25.30;63.50;;;;;;5072931;28;20029;-72
2023/05/06 13:12:28;;;;;;;6.28;5.25;;;25.30;63.90;;;;;;5072918;28;20062;-72
2023/05/06 13:14:54;;;;;;;6.55;4.45;;;25.30;61.20;;;;;;5073460;28;20032;-72
2023/05/06 13:17:20;;;;;;;5.93;4.50;;;25.30;60.30;;;;;;5073288;28;20444;-72
2023/05/06 13:19:45;;;;;;;5.68;4.30;;;25.40;61.40;;;;;;5072839;28;20361;-72
2023/05/06 13:22:11;;;;;;;5.93;4.30;;;25.40;59.80;;;;;;5072936;28;20063;-72
2023/05/06 13:24:37;;;;;;;5.47;4.53;;;25.40;58.20;;;;;;5073695;28;20474;-72
2023/05/06 13:27:03;;;;;;;4.32;3.92;;;25.40;57.80;;;;;;5073779;28;20031;-72
2023/05/06 13:29:29;;;;;;;9.68;4.03;;;25.30;58.60;;;;;;5073593;28;20024;-72
2023/05/06 13:31:55;;;;;;;5.82;4.10;;;25.30;60.50;;;;;;5073515;28;20027;-72
2023/05/06 13:34:26;;;;;;;8.63;4.43;;;25.30;58.20;;;;;;5073418;28;20392;-72
2023/05/06 13:37:02;;;;;;;12.88;4.18;;;25.20;58.80;;;;;;5073226;28;20479;-72
2023/05/06 13:39:42;;;;;;;4.90;4.22;;;25.30;61.50;;;;;;5055289;28;20437;-71